sensor_id;sensor_type;location;lat;lon;timestamp;pressure;altitude;pressure_sealevel;temperature;humidity
58686;BME280;44465;53.206;-6.106;2023-09-08T00:01:05;101556.91;;;25.36;57.94
58686;BME280;44465;53.206;-6.106;2023-09-08T00:03:31;101558.84;;;25.34;58.20
58686;BME280;44465;53.206;-6.106;2023-09-08T00:05:56;101565.06;;;25.35;58.14
58686;BME280;44465;53.206;-6.106;2023-09-08T00:08:21;101560.56;;;25.35;57.98
58686;BME280;44465;53.206;-6.106;2023-09-08T00:10:49;101555.16;;;25.35;58.04
58686;BME280;44465;53.206;-6.106;2023-09-08T00:13:14;101565.97;;;25.35;58.00
58686;BME280;44465;53.206;-6.106;2023-09-08T00:15:39;101560.56;;;25.35;57.86
58686;BME280;44465;53.206;-6.106;2023-09-08T00:18:05;101565.97;;;25.35;58.21
58686;BME280;44465;53.206;-6.106;2023-09-08T00:20:30;101558.84;;;25.34;58.02
58686;BME280;44465;53.206;-6.106;2023-09-08T00:22:55;101548.03;;;25.34;57.79
58686;BME280;44465;53.206;-6.106;2023-09-08T00:25:21;101556.97;;;25.35;57.80
58686;BME280;44465;53.206;-6.106;2023-09-08T00:27:46;101551.69;;;25.33;57.90
58686;BME280;44465;53.206;-6.106;2023-09-08T00:30:11;101558.84;;;25.34;57.82
58686;BME280;44465;53.206;-6.106;2023-09-08T00:32:37;101554.41;;;25.33;57.71
58686;BME280;44465;53.206;-6.106;2023-09-08T00:35:05;101545.44;;;25.33;57.88
58686;BME280;44465;53.206;-6.106;2023-09-08T00:37:30;101548.22;;;25.31;58.08
58686;BME280;44465;53.206;-6.106;2023-09-08T00:39:56;101559.00;;;25.31;58.01
58686;BME280;44465;53.206;-6.106;2023-09-08T00:42:21;101557.28;;;25.30;58.09
58686;BME280;44465;53.206;-6.106;2023-09-08T00:44:46;101552.84;;;25.29;57.97
58686;BME280;44465;53.206;-6.106;2023-09-08T00:47:12;101543.00;;;25.28;57.97
58686;BME280;44465;53.206;-6.106;2023-09-08T00:49:37;101544.75;;;25.29;58.18
58686;BME280;44465;53.206;-6.106;2023-09-08T00:52:03;101548.41;;;25.28;58.11
58686;BME280;44465;53.206;-6.106;2023-09-08T00:54:28;101553.78;;;25.28;57.74
58686;BME280;44465;53.206;-6.106;2023-09-08T00:56:56;101553.78;;;25.28;57.81
58686;BME280;44465;53.206;-6.106;2023-09-08T00:59:22;101546.66;;;25.27;57.65
58686;BME280;44465;53.206;-6.106;2023-09-08T01:01:48;101547.56;;;25.28;57.86
58686;BME280;44465;53.206;-6.106;2023-09-08T01:04:13;101552.94;;;25.28;57.90
58686;BME280;44465;53.206;-6.106;2023-09-08T01:06:39;101552.06;;;25.27;57.73
58686;BME280;44465;53.206;-6.106;2023-09-08T01:09:04;101546.66;;;25.27;57.66
58686;BME280;44465;53.206;-6.106;2023-09-08T01:11:30;101550.25;;;25.28;57.99
58686;BME280;44465;53.206;-6.106;2023-09-08T01:13:56;101548.50;;;25.27;57.74
58686;BME280;44465;53.206;-6.106;2023-09-08T01:16:21;101552.06;;;25.27;57.91
58686;BME280;44465;53.206;-6.106;2023-09-08T01:18:46;101549.38;;;25.27;57.68
58686;BME280;44465;53.206;-6.106;2023-09-08T01:21:20;101550.34;;;25.26;57.86
58686;BME280;44465;53.206;-6.106;2023-09-08T01:24:17;101549.56;;;25.24;57.64
58686;BME280;44465;53.206;-6.106;2023-09-08T01:26:43;101538.78;;;25.24;57.78
58686;BME280;44465;53.206;-6.106;2023-09-08T01:29:09;101535.22;;;25.23;57.68
58686;BME280;44465;53.206;-6.106;2023-09-08T01:31:35;101534.38;;;25.23;57.63
58686;BME280;44465;53.206;-6.106;2023-09-08T01:34:02;101534.38;;;25.23;57.98
58686;BME280;44465;53.206;-6.106;2023-09-08T01:36:32;101529.16;;;25.20;57.86
58686;BME280;44465;53.206;-6.106;2023-09-08T01:38:57;101527.34;;;25.20;57.71
58686;BME280;44465;53.206;-6.106;2023-09-08T01:41:24;101523.75;;;25.20;57.76
58686;BME280;44465;53.206;-6.106;2023-09-08T01:43:49;101521.94;;;25.20;57.83
58686;BME280;44465;53.206;-6.106;2023-09-08T01:46:15;101525.50;;;25.21;57.53
58686;BME280;44465;53.206;-6.106;2023-09-08T01:48:41;101514.72;;;25.21;57.66
58686;BME280;44465;53.206;-6.106;2023-09-08T01:51:06;101513.75;;;25.22;57.83
58686;BME280;44465;53.206;-6.106;2023-09-08T01:53:31;101511.06;;;25.22;57.92
58686;BME280;44465;53.206;-6.106;2023-09-08T01:55:57;101510.28;;;25.20;57.92
58686;BME280;44465;53.206;-6.106;2023-09-08T01:58:22;101508.47;;;25.20;57.55
58686;BME280;44465;53.206;-6.106;2023-09-08T02:00:48;101507.59;;;25.20;57.53
58686;BME280;44465;53.206;-6.106;2023-09-08T02:03:13;101507.59;;;25.20;57.84
58686;BME280;44465;53.206;-6.106;2023-09-08T02:05:39;101513.88;;;25.20;57.96
58686;BME280;44465;53.206;-6.106;2023-09-08T02:08:05;101516.63;;;25.19;57.63
58686;BME280;44465;53.206;-6.106;2023-09-08T02:10:31;101509.50;;;25.18;57.66
58686;BME280;44465;53.206;-6.106;2023-09-08T02:12:57;101514.03;;;25.17;57.56
58686;BME280;44465;53.206;-6.106;2023-09-08T02:15:22;101513.16;;;25.17;57.73
58686;BME280;44465;53.206;-6.106;2023-09-08T02:17:50;101516.84;;;25.16;57.48
58686;BME280;44465;53.206;-6.106;2023-09-08T02:20:15;101522.25;;;25.16;57.60
58686;BME280;44465;53.206;-6.106;2023-09-08T02:22:41;101520.41;;;25.16;57.47
58686;BME280;44465;53.206;-6.106;2023-09-08T02:25:07;101530.41;;;25.14;57.54
58686;BME280;44465;53.206;-6.106;2023-09-08T02:27:32;101527.69;;;25.14;57.55
58686;BME280;44465;53.206;-6.106;2023-09-08T02:29:58;101525.91;;;25.15;57.84
58686;BME280;44465;53.206;-6.106;2023-09-08T02:32:23;101528.59;;;25.15;57.64
58686;BME280;44465;53.206;-6.106;2023-09-08T02:34:49;101526.84;;;25.14;57.55
58686;BME280;44465;53.206;-6.106;2023-09-08T02:37:15;101532.13;;;25.15;57.75
58686;BME280;44465;53.206;-6.106;2023-09-08T02:39:40;101537.53;;;25.15;57.58
58686;BME280;44465;53.206;-6.106;2023-09-08T02:42:06;101533.09;;;25.14;57.43
58686;BME280;44465;53.206;-6.106;2023-09-08T02:44:31;101531.28;;;25.15;57.42
58686;BME280;44465;53.206;-6.106;2023-09-08T02:46:57;101525.91;;;25.15;57.64
58686;BME280;44465;53.206;-6.106;2023-09-08T02:49:23;101516.06;;;25.14;57.42
58686;BME280;44465;53.206;-6.106;2023-09-08T02:51:49;101511.63;;;25.13;57.62
58686;BME280;44465;53.206;-6.106;2023-09-08T02:54:14;101517.03;;;25.13;57.44
58686;BME280;44465;53.206;-6.106;2023-09-08T02:56:40;101521.53;;;25.12;57.71
58686;BME280;44465;53.206;-6.106;2023-09-08T02:59:05;101512.69;;;25.10;57.41
58686;BME280;44465;53.206;-6.106;2023-09-08T03:01:30;101515.28;;;25.12;57.52
58686;BME280;44465;53.206;-6.106;2023-09-08T03:03:55;101518.94;;;25.11;57.71
58686;BME280;44465;53.206;-6.106;2023-09-08T03:06:21;101515.28;;;25.12;57.44
58686;BME280;44465;53.206;-6.106;2023-09-08T03:08:47;101514.50;;;25.09;57.42
58686;BME280;44465;53.206;-6.106;2023-09-08T03:11:12;101516.34;;;25.09;57.39
58686;BME280;44465;53.206;-6.106;2023-09-08T03:13:38;101521.75;;;25.09;57.81
58686;BME280;44465;53.206;-6.106;2023-09-08T03:16:05;101520.84;;;25.08;57.66
58686;BME280;44465;53.206;-6.106;2023-09-08T03:18:31;101511.81;;;25.09;57.39
58686;BME280;44465;53.206;-6.106;2023-09-08T03:20:57;101504.69;;;25.08;57.33
58686;BME280;44465;53.206;-6.106;2023-09-08T03:23:23;101508.28;;;25.09;57.46
58686;BME280;44465;53.206;-6.106;2023-09-08T03:25:48;101513.66;;;25.09;57.46
58686;BME280;44465;53.206;-6.106;2023-09-08T03:28:14;101507.38;;;25.08;57.71
58686;BME280;44465;53.206;-6.106;2023-09-08T03:30:39;101504.69;;;25.08;57.40
58686;BME280;44465;53.206;-6.106;2023-09-08T03:33:05;101510.97;;;25.09;57.42
58686;BME280;44465;53.206;-6.106;2023-09-08T03:35:30;101516.44;;;25.07;57.29
58686;BME280;44465;53.206;-6.106;2023-09-08T03:37:55;101513.72;;;25.07;57.70
58686;BME280;44465;53.206;-6.106;2023-09-08T03:40:21;101511.16;;;25.06;57.36
58686;BME280;44465;53.206;-6.106;2023-09-08T03:42:46;101515.66;;;25.05;57.33
58686;BME280;44465;53.206;-6.106;2023-09-08T03:45:11;101510.25;;;25.05;57.45
58686;BME280;44465;53.206;-6.106;2023-09-08T03:47:37;101506.72;;;25.05;57.42
58686;BME280;44465;53.206;-6.106;2023-09-08T03:50:02;101510.25;;;25.05;57.58
58686;BME280;44465;53.206;-6.106;2023-09-08T03:52:28;101500.47;;;25.04;57.50
58686;BME280;44465;53.206;-6.106;2023-09-08T03:54:53;101504.13;;;25.03;57.58
58686;BME280;44465;53.206;-6.106;2023-09-08T03:57:18;101503.16;;;25.04;57.39
58686;BME280;44465;53.206;-6.106;2023-09-08T03:59:44;101498.75;;;25.03;57.34
58686;BME280;44465;53.206;-6.106;2023-09-08T04:02:09;101499.59;;;25.04;57.39
58686;BME280;44465;53.206;-6.106;2023-09-08T04:04:34;101502.28;;;25.04;57.13
58686;BME280;44465;53.206;-6.106;2023-09-08T04:07:00;101496.91;;;25.04;57.68
58686;BME280;44465;53.206;-6.106;2023-09-08T04:09:25;101496.03;;;25.03;57.27
58686;BME280;44465;53.206;-6.106;2023-09-08T04:11:51;101507.66;;;25.04;57.49
58686;BME280;44465;53.206;-6.106;2023-09-08T04:14:16;101513.06;;;25.04;57.58
58686;BME280;44465;53.206;-6.106;2023-09-08T04:16:42;101512.22;;;25.03;57.51
58686;BME280;44465;53.206;-6.106;2023-09-08T04:19:07;101509.50;;;25.03;57.37
58686;BME280;44465;53.206;-6.106;2023-09-08T04:21:32;101512.22;;;25.03;57.50
58686;BME280;44465;53.206;-6.106;2023-09-08T04:23:58;101510.47;;;25.02;57.43
58686;BME280;44465;53.206;-6.106;2023-09-08T04:26:24;101512.28;;;25.02;57.24
58686;BME280;44465;53.206;-6.106;2023-09-08T04:28:50;101514.13;;;25.01;57.64
58686;BME280;44465;53.206;-6.106;2023-09-08T04:31:15;101520.47;;;25.00;57.48
58686;BME280;44465;53.206;-6.106;2023-09-08T04:33:41;101518.63;;;25.01;57.41
58686;BME280;44465;53.206;-6.106;2023-09-08T04:36:07;101518.63;;;25.01;57.52
58686;BME280;44465;53.206;-6.106;2023-09-08T04:38:33;101516.91;;;25.00;57.42
58686;BME280;44465;53.206;-6.106;2023-09-08T04:40:58;101508.84;;;25.00;57.62
58686;BME280;44465;53.206;-6.106;2023-09-08T04:43:24;101516.03;;;24.99;57.61
58686;BME280;44465;53.206;-6.106;2023-09-08T04:45:50;101507.00;;;25.00;57.23
58686;BME280;44465;53.206;-6.106;2023-09-08T04:48:15;101507.97;;;24.99;57.37
58686;BME280;44465;53.206;-6.106;2023-09-08T04:50:41;101510.66;;;24.99;57.28
58686;BME280;44465;53.206;-6.106;2023-09-08T04:53:06;101511.53;;;25.00;57.50
58686;BME280;44465;53.206;-6.106;2023-09-08T04:55:32;101507.97;;;24.99;57.48
58686;BME280;44465;53.206;-6.106;2023-09-08T04:57:57;101510.66;;;24.99;57.32
58686;BME280;44465;53.206;-6.106;2023-09-08T05:00:24;101510.66;;;24.99;57.48
58686;BME280;44465;53.206;-6.106;2023-09-08T05:02:49;101515.19;;;24.99;57.27
58686;BME280;44465;53.206;-6.106;2023-09-08T05:05:15;101508.91;;;24.98;57.46
58686;BME280;44465;53.206;-6.106;2023-09-08T05:07:40;101508.91;;;24.98;57.47
58686;BME280;44465;53.206;-6.106;2023-09-08T05:10:06;101514.41;;;24.97;57.46
58686;BME280;44465;53.206;-6.106;2023-09-08T05:12:34;101505.44;;;24.96;57.49
58686;BME280;44465;53.206;-6.106;2023-09-08T05:14:59;101515.38;;;24.96;57.24
58686;BME280;44465;53.206;-6.106;2023-09-08T05:17:32;101509.09;;;24.95;57.42
58686;BME280;44465;53.206;-6.106;2023-09-08T05:19:57;101518.91;;;24.96;57.61
58686;BME280;44465;53.206;-6.106;2023-09-08T05:22:23;101510.09;;;24.94;57.33
58686;BME280;44465;53.206;-6.106;2023-09-08T05:24:48;101506.50;;;24.93;57.43
58686;BME280;44465;53.206;-6.106;2023-09-08T05:27:14;101505.66;;;24.93;57.23
58686;BME280;44465;53.206;-6.106;2023-09-08T05:29:39;101498.31;;;24.95;57.46
58686;BME280;44465;53.206;-6.106;2023-09-08T05:32:05;101496.59;;;24.94;57.54
58686;BME280;44465;53.206;-6.106;2023-09-08T05:34:30;101496.59;;;24.94;57.19
58686;BME280;44465;53.206;-6.106;2023-09-08T05:36:56;101504.69;;;24.94;57.38
58686;BME280;44465;53.206;-6.106;2023-09-08T05:39:21;101512.78;;;24.94;57.19
58686;BME280;44465;53.206;-6.106;2023-09-08T05:41:47;101501.09;;;24.93;57.46
58686;BME280;44465;53.206;-6.106;2023-09-08T05:44:12;101499.31;;;24.94;57.28
58686;BME280;44465;53.206;-6.106;2023-09-08T05:46:38;101504.69;;;24.94;57.44
58686;BME280;44465;53.206;-6.106;2023-09-08T05:49:03;101499.38;;;24.92;57.31
58686;BME280;44465;53.206;-6.106;2023-09-08T05:51:30;101497.63;;;24.91;57.35
58686;BME280;44465;53.206;-6.106;2023-09-08T05:53:56;101502.19;;;24.91;57.17
58686;BME280;44465;53.206;-6.106;2023-09-08T05:56:24;101517.38;;;24.92;57.57
58686;BME280;44465;53.206;-6.106;2023-09-08T05:58:49;101519.19;;;24.91;57.14
58686;BME280;44465;53.206;-6.106;2023-09-08T06:01:15;101519.19;;;24.91;57.38
58686;BME280;44465;53.206;-6.106;2023-09-08T06:03:41;101520.16;;;24.90;57.40
58686;BME280;44465;53.206;-6.106;2023-09-08T06:06:06;101518.34;;;24.91;57.09
58686;BME280;44465;53.206;-6.106;2023-09-08T06:08:32;101529.13;;;24.91;57.20
58686;BME280;44465;53.206;-6.106;2023-09-08T06:10:57;101535.34;;;24.91;57.28
58686;BME280;44465;53.206;-6.106;2023-09-08T06:13:23;101530.94;;;24.90;57.32
58686;BME280;44465;53.206;-6.106;2023-09-08T06:15:48;101533.63;;;24.90;57.20
58686;BME280;44465;53.206;-6.106;2023-09-08T06:18:14;101527.38;;;24.90;57.27
58686;BME280;44465;53.206;-6.106;2023-09-08T06:20:43;101523.72;;;24.91;57.21
58686;BME280;44465;53.206;-6.106;2023-09-08T06:23:09;101526.53;;;24.89;57.33
58686;BME280;44465;53.206;-6.106;2023-09-08T06:25:34;101526.41;;;24.91;57.15
58686;BME280;44465;53.206;-6.106;2023-09-08T06:28:00;101522.00;;;24.90;57.16
58686;BME280;44465;53.206;-6.106;2023-09-08T06:30:26;101530.06;;;24.90;57.22
58686;BME280;44465;53.206;-6.106;2023-09-08T06:32:51;101529.22;;;24.89;57.20
58686;BME280;44465;53.206;-6.106;2023-09-08T06:35:17;101532.75;;;24.90;57.19
58686;BME280;44465;53.206;-6.106;2023-09-08T06:37:42;101531.03;;;24.89;57.43
58686;BME280;44465;53.206;-6.106;2023-09-08T06:40:08;101536.41;;;24.89;57.31
58686;BME280;44465;53.206;-6.106;2023-09-08T06:42:34;101537.31;;;24.89;57.15
58686;BME280;44465;53.206;-6.106;2023-09-08T06:45:09;101544.50;;;24.89;57.23
58686;BME280;44465;53.206;-6.106;2023-09-08T06:47:34;101552.59;;;24.89;57.36
58686;BME280;44465;53.206;-6.106;2023-09-08T06:50:00;101544.50;;;24.89;57.26
58686;BME280;44465;53.206;-6.106;2023-09-08T06:52:25;101553.53;;;24.88;57.18
58686;BME280;44465;53.206;-6.106;2023-09-08T06:54:50;101551.72;;;24.88;57.36
58686;BME280;44465;53.206;-6.106;2023-09-08T06:57:17;101554.41;;;24.88;57.14
58686;BME280;44465;53.206;-6.106;2023-09-08T06:59:43;101548.25;;;24.86;57.52
58686;BME280;44465;53.206;-6.106;2023-09-08T07:02:08;101552.75;;;24.86;57.36
58686;BME280;44465;53.206;-6.106;2023-09-08T07:04:34;101556.34;;;24.86;57.17
58686;BME280;44465;53.206;-6.106;2023-09-08T07:06:59;101559.88;;;24.87;57.16
58686;BME280;44465;53.206;-6.106;2023-09-08T07:09:29;101559.88;;;24.87;57.32
58686;BME280;44465;53.206;-6.106;2023-09-08T07:11:54;101549.09;;;24.87;57.17
58686;BME280;44465;53.206;-6.106;2023-09-08T07:14:19;101553.63;;;24.86;57.29
58686;BME280;44465;53.206;-6.106;2023-09-08T07:16:45;101550.00;;;24.87;57.35
58686;BME280;44465;53.206;-6.106;2023-09-08T07:19:10;101543.66;;;24.88;57.11
58686;BME280;44465;53.206;-6.106;2023-09-08T07:21:36;101547.28;;;24.87;57.16
58686;BME280;44465;53.206;-6.106;2023-09-08T07:24:02;101547.19;;;24.89;57.21
58686;BME280;44465;53.206;-6.106;2023-09-08T07:26:28;101546.34;;;24.88;57.08
58686;BME280;44465;53.206;-6.106;2023-09-08T07:28:53;101540.06;;;24.88;57.23
58686;BME280;44465;53.206;-6.106;2023-09-08T07:31:19;101540.06;;;24.88;57.08
58686;BME280;44465;53.206;-6.106;2023-09-08T07:33:47;101548.16;;;24.88;57.12
58686;BME280;44465;53.206;-6.106;2023-09-08T07:36:13;101557.97;;;24.89;57.26
58686;BME280;44465;53.206;-6.106;2023-09-08T07:38:40;101552.59;;;24.89;57.20
58686;BME280;44465;53.206;-6.106;2023-09-08T07:41:06;101557.97;;;24.89;56.95
58686;BME280;44465;53.206;-6.106;2023-09-08T07:43:32;101552.59;;;24.89;57.17
58686;BME280;44465;53.206;-6.106;2023-09-08T07:45:57;101550.84;;;24.88;57.27
58686;BME280;44465;53.206;-6.106;2023-09-08T07:48:22;101557.13;;;24.88;57.15
58686;BME280;44465;53.206;-6.106;2023-09-08T07:50:48;101558.91;;;24.88;57.40
58686;BME280;44465;53.206;-6.106;2023-09-08T07:53:13;101553.63;;;24.86;56.91
58686;BME280;44465;53.206;-6.106;2023-09-08T07:55:38;101557.19;;;24.87;57.31
58686;BME280;44465;53.206;-6.106;2023-09-08T07:58:04;101533.66;;;24.74;57.17
58686;BME280;44465;53.206;-6.106;2023-09-08T08:00:30;101559.03;;;24.86;57.19
58686;BME280;44465;53.206;-6.106;2023-09-08T08:02:55;101554.50;;;24.87;57.05
58686;BME280;44465;53.206;-6.106;2023-09-08T08:05:21;101555.38;;;24.87;57.38
58686;BME280;44465;53.206;-6.106;2023-09-08T08:07:47;101550.84;;;24.88;57.16
58686;BME280;44465;53.206;-6.106;2023-09-08T08:10:12;101553.53;;;24.88;57.09
58686;BME280;44465;53.206;-6.106;2023-09-08T08:12:41;101555.28;;;24.89;57.17
58686;BME280;44465;53.206;-6.106;2023-09-08T08:15:07;101557.97;;;24.89;57.15
58686;BME280;44465;53.206;-6.106;2023-09-08T08:17:35;101557.97;;;24.89;57.18
58686;BME280;44465;53.206;-6.106;2023-09-08T08:20:01;101558.84;;;24.89;57.28
58686;BME280;44465;53.206;-6.106;2023-09-08T08:22:34;101559.81;;;24.88;57.31
58686;BME280;44465;53.206;-6.106;2023-09-08T08:24:59;101563.34;;;24.89;57.21
58686;BME280;44465;53.206;-6.106;2023-09-08T08:27:25;101559.69;;;24.90;57.26
58686;BME280;44465;53.206;-6.106;2023-09-08T08:29:50;101570.47;;;24.90;57.10
58686;BME280;44465;53.206;-6.106;2023-09-08T08:32:16;101574.13;;;24.89;57.17
58686;BME280;44465;53.206;-6.106;2023-09-08T08:34:41;101572.31;;;24.89;57.15
58686;BME280;44465;53.206;-6.106;2023-09-08T08:37:07;101580.41;;;24.89;57.33
58686;BME280;44465;53.206;-6.106;2023-09-08T08:39:32;101575.00;;;24.89;57.34
58686;BME280;44465;53.206;-6.106;2023-09-08T08:41:57;101575.88;;;24.90;57.34
58686;BME280;44465;53.206;-6.106;2023-09-08T08:44:23;101580.41;;;24.89;57.35
58686;BME280;44465;53.206;-6.106;2023-09-08T08:46:48;101577.78;;;24.88;57.01
58686;BME280;44465;53.206;-6.106;2023-09-08T08:49:15;101578.66;;;24.88;57.12
58686;BME280;44465;53.206;-6.106;2023-09-08T08:51:42;101579.53;;;24.89;57.31
58686;BME280;44465;53.206;-6.106;2023-09-08T08:54:09;101577.78;;;24.88;57.16
58686;BME280;44465;53.206;-6.106;2023-09-08T08:56:35;101575.00;;;24.89;57.30
58686;BME280;44465;53.206;-6.106;2023-09-08T08:59:01;101573.19;;;24.90;57.33
58686;BME280;44465;53.206;-6.106;2023-09-08T09:01:27;101570.47;;;24.90;57.36
58686;BME280;44465;53.206;-6.106;2023-09-08T09:03:53;101580.31;;;24.91;57.09
58686;BME280;44465;53.206;-6.106;2023-09-08T09:06:19;101578.47;;;24.91;57.18
58686;BME280;44465;53.206;-6.106;2023-09-08T09:08:45;101587.44;;;24.92;57.31
58686;BME280;44465;53.206;-6.106;2023-09-08T09:11:11;101581.09;;;24.93;57.23
58686;BME280;44465;53.206;-6.106;2023-09-08T09:13:37;101584.72;;;24.92;57.18
58686;BME280;44465;53.206;-6.106;2023-09-08T09:16:02;101581.09;;;24.93;57.11
58686;BME280;44465;53.206;-6.106;2023-09-08T09:18:29;101583.78;;;24.93;57.07
58686;BME280;44465;53.206;-6.106;2023-09-08T09:20:56;101581.09;;;24.93;57.39
58686;BME280;44465;53.206;-6.106;2023-09-08T09:23:31;101587.31;;;24.93;57.43
58686;BME280;44465;53.206;-6.106;2023-09-08T09:25:57;101590.13;;;24.92;57.25
58686;BME280;44465;53.206;-6.106;2023-09-08T09:28:23;101601.69;;;24.94;57.37
58686;BME280;44465;53.206;-6.106;2023-09-08T09:30:49;101606.09;;;24.95;57.46
58686;BME280;44465;53.206;-6.106;2023-09-08T09:33:14;101605.22;;;24.94;57.36
58686;BME280;44465;53.206;-6.106;2023-09-08T09:35:46;101607.94;;;24.94;57.38
58686;BME280;44465;53.206;-6.106;2023-09-08T09:38:12;101609.75;;;24.94;57.18
58686;BME280;44465;53.206;-6.106;2023-09-08T09:40:37;101605.22;;;24.94;57.50
58686;BME280;44465;53.206;-6.106;2023-09-08T09:43:04;101611.47;;;24.95;57.46
58686;BME280;44465;53.206;-6.106;2023-09-08T09:45:29;101611.47;;;24.95;57.39
58686;BME280;44465;53.206;-6.106;2023-09-08T09:47:55;101606.97;;;24.96;57.51
58686;BME280;44465;53.206;-6.106;2023-09-08T09:52:59;101621.22;;;24.98;57.46
58686;BME280;44465;53.206;-6.106;2023-09-08T09:55:25;101621.22;;;24.98;57.49
58686;BME280;44465;53.206;-6.106;2023-09-08T09:57:51;101622.06;;;24.98;57.43
58686;BME280;44465;53.206;-6.106;2023-09-08T10:00:18;101615.72;;;24.99;57.33
58686;BME280;44465;53.206;-6.106;2023-09-08T10:02:44;101621.78;;;24.88;57.54
58686;BME280;44465;53.206;-6.106;2023-09-08T10:05:10;101614.91;;;24.83;57.85
58686;BME280;44465;53.206;-6.106;2023-09-08T10:07:37;101619.16;;;24.87;57.53
58686;BME280;44465;53.206;-6.106;2023-09-08T10:10:03;101620.88;;;24.88;57.51
58686;BME280;44465;53.206;-6.106;2023-09-08T10:12:30;101610.28;;;24.85;57.84
58686;BME280;44465;53.206;-6.106;2023-09-08T10:15:00;101615.50;;;24.88;57.46
58686;BME280;44465;53.206;-6.106;2023-09-08T10:17:27;101605.50;;;24.90;57.54
58686;BME280;44465;53.206;-6.106;2023-09-08T10:19:55;101607.25;;;24.91;57.54
58686;BME280;44465;53.206;-6.106;2023-09-08T10:22:23;101604.44;;;24.92;57.40
58686;BME280;44465;53.206;-6.106;2023-09-08T10:24:51;101602.63;;;24.93;57.52
58686;BME280;44465;53.206;-6.106;2023-09-08T10:27:19;101609.75;;;24.94;57.39
58686;BME280;44465;53.206;-6.106;2023-09-08T10:29:46;101606.09;;;24.95;57.57
58686;BME280;44465;53.206;-6.106;2023-09-08T10:32:12;101606.09;;;24.95;57.37
58686;BME280;44465;53.206;-6.106;2023-09-08T10:34:38;101607.81;;;24.96;57.46
58686;BME280;44465;53.206;-6.106;2023-09-08T10:37:18;101609.56;;;24.97;57.62
58686;BME280;44465;53.206;-6.106;2023-09-08T10:39:43;101612.47;;;24.94;57.80
58686;BME280;44465;53.206;-6.106;2023-09-08T10:47:12;101607.66;;;24.99;57.47
58686;BME280;44465;53.206;-6.106;2023-09-08T10:49:38;101607.66;;;24.99;57.65
58686;BME280;44465;53.206;-6.106;2023-09-08T10:52:10;101607.66;;;24.99;57.42
58686;BME280;44465;53.206;-6.106;2023-09-08T10:54:43;101604.00;;;25.00;57.73
58686;BME280;44465;53.206;-6.106;2023-09-08T10:57:17;101599.56;;;24.99;57.50
58686;BME280;44465;53.206;-6.106;2023-09-08T10:59:51;101598.59;;;25.00;57.84
58686;BME280;44465;53.206;-6.106;2023-09-08T11:05:01;101575.09;;;24.88;57.31
58686;BME280;44465;53.206;-6.106;2023-09-08T11:07:27;101587.94;;;24.99;57.60
58686;BME280;44465;53.206;-6.106;2023-09-08T11:09:52;101578.91;;;25.00;57.82
58686;BME280;44465;53.206;-6.106;2023-09-08T11:12:18;101591.31;;;25.02;57.71
58686;BME280;44465;53.206;-6.106;2023-09-08T11:14:43;101577.84;;;25.02;57.62
58686;BME280;44465;53.206;-6.106;2023-09-08T11:17:08;101580.53;;;25.02;57.44
58686;BME280;44465;53.206;-6.106;2023-09-08T11:19:47;101578.69;;;25.03;57.53
58686;BME280;44465;53.206;-6.106;2023-09-08T11:22:13;101579.56;;;25.03;57.60
58686;BME280;44465;53.206;-6.106;2023-09-08T11:24:40;101577.72;;;25.04;57.51
58686;BME280;44465;53.206;-6.106;2023-09-08T11:27:06;101578.69;;;25.03;57.86
58686;BME280;44465;53.206;-6.106;2023-09-08T11:29:32;101567.06;;;25.02;57.58
58686;BME280;44465;53.206;-6.106;2023-09-08T11:31:57;101566.09;;;25.03;57.85
58686;BME280;44465;53.206;-6.106;2023-09-08T11:34:23;101568.78;;;25.03;57.53
58686;BME280;44465;53.206;-6.106;2023-09-08T11:36:48;101566.94;;;25.04;57.52
58686;BME280;44465;53.206;-6.106;2023-09-08T11:39:14;101563.41;;;25.03;57.63
58686;BME280;44465;53.206;-6.106;2023-09-08T11:41:39;101569.94;;;24.99;57.88
58686;BME280;44465;53.206;-6.106;2023-09-08T11:44:04;101567.13;;;25.01;57.93
58686;BME280;44465;53.206;-6.106;2023-09-08T11:46:30;101570.59;;;25.03;58.08
58686;BME280;44465;53.206;-6.106;2023-09-08T11:48:55;101572.34;;;25.04;57.97
58686;BME280;44465;53.206;-6.106;2023-09-08T11:51:25;101567.91;;;25.03;57.98
58686;BME280;44465;53.206;-6.106;2023-09-08T11:53:51;101564.38;;;25.02;57.88
58686;BME280;44465;53.206;-6.106;2023-09-08T11:56:16;101568.78;;;25.03;58.03
58686;BME280;44465;53.206;-6.106;2023-09-08T11:58:41;101566.09;;;25.03;57.75
58686;BME280;44465;53.206;-6.106;2023-09-08T12:01:08;101568.78;;;25.03;57.94
58686;BME280;44465;53.206;-6.106;2023-09-08T12:03:33;101566.09;;;25.03;57.90
58686;BME280;44465;53.206;-6.106;2023-09-08T12:05:59;101571.50;;;25.03;57.76
58686;BME280;44465;53.206;-6.106;2023-09-08T12:08:25;101566.09;;;25.03;57.92
58686;BME280;44465;53.206;-6.106;2023-09-08T12:10:53;101566.09;;;25.03;57.66
58686;BME280;44465;53.206;-6.106;2023-09-08T12:13:24;101570.53;;;25.04;58.07
58686;BME280;44465;53.206;-6.106;2023-09-08T12:15:50;101573.22;;;25.04;57.89
58686;BME280;44465;53.206;-6.106;2023-09-08T12:18:15;101567.84;;;25.04;57.72
58686;BME280;44465;53.206;-6.106;2023-09-08T12:20:41;101574.06;;;25.05;57.88
58686;BME280;44465;53.206;-6.106;2023-09-08T12:23:15;101571.38;;;25.05;57.88
58686;BME280;44465;53.206;-6.106;2023-09-08T12:25:46;101569.53;;;25.05;57.67
58686;BME280;44465;53.206;-6.106;2023-09-08T12:28:12;101568.69;;;25.05;57.80
58686;BME280;44465;53.206;-6.106;2023-09-08T12:30:38;101571.38;;;25.05;57.89
58686;BME280;44465;53.206;-6.106;2023-09-08T12:33:03;101569.66;;;25.04;57.97
58686;BME280;44465;53.206;-6.106;2023-09-08T12:35:29;101573.22;;;25.04;57.98
58686;BME280;44465;53.206;-6.106;2023-09-08T12:37:59;101567.84;;;25.04;57.84
58686;BME280;44465;53.206;-6.106;2023-09-08T12:40:28;101571.38;;;25.05;57.89
58686;BME280;44465;53.206;-6.106;2023-09-08T12:42:54;101574.06;;;25.05;57.81
58686;BME280;44465;53.206;-6.106;2023-09-08T12:45:21;101574.06;;;25.05;57.89